sensor_id;sensor_type;location;lat;lon;timestamp;P1;durP1;ratioP1;P2;durP2;ratioP2
67278;SDS011;54193;53.746;10.058;2023-07-29T00:00:18;9.35;;;4.65;;
67278;SDS011;54193;53.746;10.058;2023-07-29T00:03:05;10.02;;;4.97;;
67278;SDS011;54193;53.746;10.058;2023-07-29T00:05:51;10.02;;;4.80;;
67278;SDS011;54193;53.746;10.058;2023-07-29T00:08:36;9.07;;;5.07;;
67278;SDS011;54193;53.746;10.058;2023-07-29T00:11:22;8.93;;;4.63;;
67278;SDS011;54193;53.746;10.058;2023-07-29T00:14:07;8.77;;;5.00;;
67278;SDS011;54193;53.746;10.058;2023-07-29T00:16:53;10.32;;;5.13;;
67278;SDS011;54193;53.746;10.058;2023-07-29T00:19:39;8.90;;;5.17;;
67278;SDS011;54193;53.746;10.058;2023-07-29T00:22:24;10.20;;;5.10;;
67278;SDS011;54193;53.746;10.058;2023-07-29T00:25:10;9.63;;;4.97;;
67278;SDS011;54193;53.746;10.058;2023-07-29T00:27:56;8.57;;;5.05;;
67278;SDS011;54193;53.746;10.058;2023-07-29T00:30:42;9.13;;;4.70;;
67278;SDS011;54193;53.746;10.058;2023-07-29T00:33:27;8.55;;;4.60;;
67278;SDS011;54193;53.746;10.058;2023-07-29T00:36:13;10.40;;;4.93;;
67278;SDS011;54193;53.746;10.058;2023-07-29T00:38:59;8.73;;;4.57;;
67278;SDS011;54193;53.746;10.058;2023-07-29T00:41:44;9.45;;;4.78;;
67278;SDS011;54193;53.746;10.058;2023-07-29T00:44:30;9.20;;;4.53;;
67278;SDS011;54193;53.746;10.058;2023-07-29T00:47:17;8.53;;;4.30;;
67278;SDS011;54193;53.746;10.058;2023-07-29T00:50:03;10.63;;;4.68;;
67278;SDS011;54193;53.746;10.058;2023-07-29T00:52:50;10.15;;;4.53;;
67278;SDS011;54193;53.746;10.058;2023-07-29T00:55:35;9.52;;;4.70;;
67278;SDS011;54193;53.746;10.058;2023-07-29T00:58:22;8.35;;;4.22;;
67278;SDS011;54193;53.746;10.058;2023-07-29T01:01:08;8.32;;;4.45;;
67278;SDS011;54193;53.746;10.058;2023-07-29T01:03:53;8.88;;;3.92;;
67278;SDS011;54193;53.746;10.058;2023-07-29T01:10:01;9.68;;;4.30;;
67278;SDS011;54193;53.746;10.058;2023-07-29T01:13:04;8.73;;;4.30;;
67278;SDS011;54193;53.746;10.058;2023-07-29T01:16:05;9.10;;;4.33;;
67278;SDS011;54193;53.746;10.058;2023-07-29T01:18:56;8.95;;;4.68;;
67278;SDS011;54193;53.746;10.058;2023-07-29T01:21:50;9.75;;;5.10;;
67278;SDS011;54193;53.746;10.058;2023-07-29T01:24:38;12.55;;;5.32;;
67278;SDS011;54193;53.746;10.058;2023-07-29T01:27:24;10.63;;;5.13;;
67278;SDS011;54193;53.746;10.058;2023-07-29T01:30:11;10.95;;;5.22;;
67278;SDS011;54193;53.746;10.058;2023-07-29T01:36:03;10.03;;;4.90;;
67278;SDS011;54193;53.746;10.058;2023-07-29T01:38:54;11.02;;;4.95;;
67278;SDS011;54193;53.746;10.058;2023-07-29T01:41:41;10.45;;;5.05;;
67278;SDS011;54193;53.746;10.058;2023-07-29T01:44:29;10.57;;;5.03;;
67278;SDS011;54193;53.746;10.058;2023-07-29T01:47:14;12.27;;;5.78;;
67278;SDS011;54193;53.746;10.058;2023-07-29T01:50:01;12.88;;;5.80;;
67278;SDS011;54193;53.746;10.058;2023-07-29T01:52:46;10.60;;;5.47;;
67278;SDS011;54193;53.746;10.058;2023-07-29T01:55:32;12.90;;;5.53;;
67278;SDS011;54193;53.746;10.058;2023-07-29T01:58:17;11.88;;;5.68;;
67278;SDS011;54193;53.746;10.058;2023-07-29T02:01:03;13.18;;;5.63;;
67278;SDS011;54193;53.746;10.058;2023-07-29T02:03:49;11.97;;;5.43;;
67278;SDS011;54193;53.746;10.058;2023-07-29T02:06:40;11.10;;;5.30;;
67278;SDS011;54193;53.746;10.058;2023-07-29T02:09:25;11.40;;;5.30;;
67278;SDS011;54193;53.746;10.058;2023-07-29T02:12:11;11.67;;;5.53;;
67278;SDS011;54193;53.746;10.058;2023-07-29T02:14:57;11.90;;;5.55;;
67278;SDS011;54193;53.746;10.058;2023-07-29T02:17:42;12.40;;;5.50;;
67278;SDS011;54193;53.746;10.058;2023-07-29T02:20:28;12.02;;;5.97;;
67278;SDS011;54193;53.746;10.058;2023-07-29T02:23:13;12.15;;;5.68;;
67278;SDS011;54193;53.746;10.058;2023-07-29T02:25:59;14.32;;;6.50;;
67278;SDS011;54193;53.746;10.058;2023-07-29T02:28:45;13.63;;;6.10;;
67278;SDS011;54193;53.746;10.058;2023-07-29T02:31:30;13.60;;;6.37;;
67278;SDS011;54193;53.746;10.058;2023-07-29T02:34:16;14.43;;;6.53;;
67278;SDS011;54193;53.746;10.058;2023-07-29T02:37:02;12.45;;;6.60;;
67278;SDS011;54193;53.746;10.058;2023-07-29T02:39:47;14.77;;;7.50;;
67278;SDS011;54193;53.746;10.058;2023-07-29T02:42:33;17.90;;;8.55;;
67278;SDS011;54193;53.746;10.058;2023-07-29T02:45:19;17.35;;;8.43;;
67278;SDS011;54193;53.746;10.058;2023-07-29T02:48:04;16.90;;;8.63;;
67278;SDS011;54193;53.746;10.058;2023-07-29T02:50:50;18.08;;;8.15;;
67278;SDS011;54193;53.746;10.058;2023-07-29T02:53:35;17.23;;;8.38;;
67278;SDS011;54193;53.746;10.058;2023-07-29T02:56:24;15.75;;;8.45;;
67278;SDS011;54193;53.746;10.058;2023-07-29T02:59:10;15.43;;;8.33;;
67278;SDS011;54193;53.746;10.058;2023-07-29T03:01:55;17.52;;;8.68;;
67278;SDS011;54193;53.746;10.058;2023-07-29T03:04:41;16.98;;;8.60;;
67278;SDS011;54193;53.746;10.058;2023-07-29T03:07:27;16.50;;;8.93;;
67278;SDS011;54193;53.746;10.058;2023-07-29T03:10:12;15.63;;;8.65;;
67278;SDS011;54193;53.746;10.058;2023-07-29T03:12:59;17.42;;;8.85;;
67278;SDS011;54193;53.746;10.058;2023-07-29T03:15:45;17.42;;;8.73;;
67278;SDS011;54193;53.746;10.058;2023-07-29T03:18:30;17.08;;;8.63;;
67278;SDS011;54193;53.746;10.058;2023-07-29T03:21:16;18.60;;;9.15;;
67278;SDS011;54193;53.746;10.058;2023-07-29T03:24:02;19.25;;;9.38;;
67278;SDS011;54193;53.746;10.058;2023-07-29T03:26:47;19.37;;;9.20;;
67278;SDS011;54193;53.746;10.058;2023-07-29T03:29:33;18.65;;;9.88;;
67278;SDS011;54193;53.746;10.058;2023-07-29T03:32:18;18.92;;;9.50;;
67278;SDS011;54193;53.746;10.058;2023-07-29T03:35:04;18.27;;;9.30;;
67278;SDS011;54193;53.746;10.058;2023-07-29T03:37:50;16.85;;;8.95;;
67278;SDS011;54193;53.746;10.058;2023-07-29T03:40:36;19.92;;;10.05;;
67278;SDS011;54193;53.746;10.058;2023-07-29T03:43:22;20.58;;;10.70;;
67278;SDS011;54193;53.746;10.058;2023-07-29T03:46:08;20.83;;;10.60;;
67278;SDS011;54193;53.746;10.058;2023-07-29T03:48:54;21.42;;;10.88;;
67278;SDS011;54193;53.746;10.058;2023-07-29T03:51:40;22.00;;;11.40;;
67278;SDS011;54193;53.746;10.058;2023-07-29T03:54:25;23.53;;;11.43;;
67278;SDS011;54193;53.746;10.058;2023-07-29T03:57:11;20.33;;;10.77;;
67278;SDS011;54193;53.746;10.058;2023-07-29T03:59:57;23.27;;;11.55;;
67278;SDS011;54193;53.746;10.058;2023-07-29T04:02:42;23.93;;;12.57;;
67278;SDS011;54193;53.746;10.058;2023-07-29T04:05:28;28.33;;;13.43;;
67278;SDS011;54193;53.746;10.058;2023-07-29T04:08:13;31.30;;;14.50;;
67278;SDS011;54193;53.746;10.058;2023-07-29T04:10:59;33.85;;;16.00;;
67278;SDS011;54193;53.746;10.058;2023-07-29T04:13:45;37.80;;;16.08;;
67278;SDS011;54193;53.746;10.058;2023-07-29T04:16:30;41.25;;;16.85;;
67278;SDS011;54193;53.746;10.058;2023-07-29T04:19:16;42.92;;;16.75;;
67278;SDS011;54193;53.746;10.058;2023-07-29T04:22:02;39.60;;;17.13;;
67278;SDS011;54193;53.746;10.058;2023-07-29T04:24:47;44.03;;;18.77;;
67278;SDS011;54193;53.746;10.058;2023-07-29T04:27:33;43.20;;;17.55;;
67278;SDS011;54193;53.746;10.058;2023-07-29T04:30:19;44.37;;;18.43;;
67278;SDS011;54193;53.746;10.058;2023-07-29T04:33:04;45.47;;;18.48;;
67278;SDS011;54193;53.746;10.058;2023-07-29T04:35:50;48.58;;;19.20;;
67278;SDS011;54193;53.746;10.058;2023-07-29T04:38:37;47.53;;;19.25;;
67278;SDS011;54193;53.746;10.058;2023-07-29T04:41:22;47.15;;;20.27;;
67278;SDS011;54193;53.746;10.058;2023-07-29T04:44:08;56.50;;;21.58;;
67278;SDS011;54193;53.746;10.058;2023-07-29T04:46:54;53.55;;;22.35;;
67278;SDS011;54193;53.746;10.058;2023-07-29T04:49:39;63.17;;;24.20;;
67278;SDS011;54193;53.746;10.058;2023-07-29T04:52:25;58.78;;;23.77;;
67278;SDS011;54193;53.746;10.058;2023-07-29T04:55:10;60.33;;;23.88;;
67278;SDS011;54193;53.746;10.058;2023-07-29T04:57:56;58.00;;;23.87;;
67278;SDS011;54193;53.746;10.058;2023-07-29T05:00:42;53.92;;;22.67;;
67278;SDS011;54193;53.746;10.058;2023-07-29T05:03:27;52.38;;;22.15;;
67278;SDS011;54193;53.746;10.058;2023-07-29T05:06:13;53.03;;;22.63;;
67278;SDS011;54193;53.746;10.058;2023-07-29T05:08:59;54.55;;;22.05;;
67278;SDS011;54193;53.746;10.058;2023-07-29T05:11:57;55.20;;;21.63;;
67278;SDS011;54193;53.746;10.058;2023-07-29T05:14:42;54.03;;;22.00;;
67278;SDS011;54193;53.746;10.058;2023-07-29T05:17:28;49.97;;;21.17;;
67278;SDS011;54193;53.746;10.058;2023-07-29T05:20:14;48.85;;;20.15;;
67278;SDS011;54193;53.746;10.058;2023-07-29T05:22:59;45.60;;;19.80;;
67278;SDS011;54193;53.746;10.058;2023-07-29T05:25:46;46.47;;;20.57;;
67278;SDS011;54193;53.746;10.058;2023-07-29T05:28:31;48.40;;;20.30;;
67278;SDS011;54193;53.746;10.058;2023-07-29T05:31:17;45.17;;;19.50;;
67278;SDS011;54193;53.746;10.058;2023-07-29T05:34:03;41.95;;;17.92;;
67278;SDS011;54193;53.746;10.058;2023-07-29T05:36:48;41.28;;;18.05;;
67278;SDS011;54193;53.746;10.058;2023-07-29T05:39:34;41.15;;;18.33;;
67278;SDS011;54193;53.746;10.058;2023-07-29T05:42:20;41.95;;;18.10;;
67278;SDS011;54193;53.746;10.058;2023-07-29T05:45:05;40.27;;;17.30;;
67278;SDS011;54193;53.746;10.058;2023-07-29T05:47:52;38.47;;;18.10;;
67278;SDS011;54193;53.746;10.058;2023-07-29T05:50:39;36.42;;;17.17;;
67278;SDS011;54193;53.746;10.058;2023-07-29T05:53:25;34.70;;;16.77;;
67278;SDS011;54193;53.746;10.058;2023-07-29T05:56:10;33.30;;;15.85;;
67278;SDS011;54193;53.746;10.058;2023-07-29T05:58:56;36.15;;;17.00;;
67278;SDS011;54193;53.746;10.058;2023-07-29T06:01:42;34.03;;;15.98;;
67278;SDS011;54193;53.746;10.058;2023-07-29T06:04:28;33.97;;;16.33;;
67278;SDS011;54193;53.746;10.058;2023-07-29T06:07:13;34.55;;;16.40;;
67278;SDS011;54193;53.746;10.058;2023-07-29T06:09:59;32.97;;;15.57;;
67278;SDS011;54193;53.746;10.058;2023-07-29T06:12:45;29.37;;;14.00;;
67278;SDS011;54193;53.746;10.058;2023-07-29T06:15:31;33.08;;;15.45;;
67278;SDS011;54193;53.746;10.058;2023-07-29T06:18:17;30.80;;;15.55;;
67278;SDS011;54193;53.746;10.058;2023-07-29T06:21:02;34.67;;;14.63;;
67278;SDS011;54193;53.746;10.058;2023-07-29T06:23:52;36.75;;;16.23;;
67278;SDS011;54193;53.746;10.058;2023-07-29T06:26:38;34.78;;;15.70;;
67278;SDS011;54193;53.746;10.058;2023-07-29T06:29:24;32.00;;;15.02;;
67278;SDS011;54193;53.746;10.058;2023-07-29T06:32:09;36.88;;;16.77;;
67278;SDS011;54193;53.746;10.058;2023-07-29T06:34:55;36.72;;;16.05;;
67278;SDS011;54193;53.746;10.058;2023-07-29T06:37:41;38.33;;;16.30;;
67278;SDS011;54193;53.746;10.058;2023-07-29T06:40:26;32.37;;;14.83;;
67278;SDS011;54193;53.746;10.058;2023-07-29T06:43:15;36.47;;;16.40;;
67278;SDS011;54193;53.746;10.058;2023-07-29T06:46:01;34.80;;;15.75;;
67278;SDS011;54193;53.746;10.058;2023-07-29T06:48:47;36.97;;;16.00;;
67278;SDS011;54193;53.746;10.058;2023-07-29T06:51:32;30.27;;;15.90;;
67278;SDS011;54193;53.746;10.058;2023-07-29T06:54:23;29.52;;;14.75;;
67278;SDS011;54193;53.746;10.058;2023-07-29T06:57:11;31.17;;;15.25;;
67278;SDS011;54193;53.746;10.058;2023-07-29T06:59:56;29.88;;;14.73;;
67278;SDS011;54193;53.746;10.058;2023-07-29T07:02:42;29.58;;;14.55;;
67278;SDS011;54193;53.746;10.058;2023-07-29T07:05:28;26.95;;;11.40;;
67278;SDS011;54193;53.746;10.058;2023-07-29T07:08:13;27.73;;;13.50;;
67278;SDS011;54193;53.746;10.058;2023-07-29T07:10:59;27.15;;;14.20;;
67278;SDS011;54193;53.746;10.058;2023-07-29T07:13:45;26.63;;;13.23;;
67278;SDS011;54193;53.746;10.058;2023-07-29T07:16:30;25.87;;;13.63;;
67278;SDS011;54193;53.746;10.058;2023-07-29T07:19:16;26.65;;;13.10;;
67278;SDS011;54193;53.746;10.058;2023-07-29T07:22:03;28.70;;;14.40;;
67278;SDS011;54193;53.746;10.058;2023-07-29T07:24:49;27.30;;;14.40;;
67278;SDS011;54193;53.746;10.058;2023-07-29T07:27:34;25.88;;;13.48;;
67278;SDS011;54193;53.746;10.058;2023-07-29T07:30:20;27.27;;;13.95;;
67278;SDS011;54193;53.746;10.058;2023-07-29T07:33:06;28.67;;;13.57;;
67278;SDS011;54193;53.746;10.058;2023-07-29T07:35:52;30.13;;;14.90;;
67278;SDS011;54193;53.746;10.058;2023-07-29T07:38:37;29.95;;;14.35;;
67278;SDS011;54193;53.746;10.058;2023-07-29T07:41:23;26.55;;;14.10;;
67278;SDS011;54193;53.746;10.058;2023-07-29T07:44:09;27.15;;;13.82;;
67278;SDS011;54193;53.746;10.058;2023-07-29T07:46:56;24.37;;;13.33;;
67278;SDS011;54193;53.746;10.058;2023-07-29T07:49:41;26.17;;;13.77;;
67278;SDS011;54193;53.746;10.058;2023-07-29T07:52:27;29.42;;;14.88;;
67278;SDS011;54193;53.746;10.058;2023-07-29T07:55:13;24.83;;;13.33;;
67278;SDS011;54193;53.746;10.058;2023-07-29T07:57:59;25.08;;;13.18;;
67278;SDS011;54193;53.746;10.058;2023-07-29T08:00:44;24.02;;;12.48;;
67278;SDS011;54193;53.746;10.058;2023-07-29T08:03:30;24.27;;;13.48;;
67278;SDS011;54193;53.746;10.058;2023-07-29T08:06:16;24.30;;;12.80;;
67278;SDS011;54193;53.746;10.058;2023-07-29T08:09:01;24.98;;;13.73;;
67278;SDS011;54193;53.746;10.058;2023-07-29T08:11:47;28.83;;;14.13;;
67278;SDS011;54193;53.746;10.058;2023-07-29T08:14:33;27.97;;;14.57;;
67278;SDS011;54193;53.746;10.058;2023-07-29T08:17:18;32.08;;;15.98;;
67278;SDS011;54193;53.746;10.058;2023-07-29T08:20:04;30.40;;;15.52;;
67278;SDS011;54193;53.746;10.058;2023-07-29T08:22:50;27.20;;;15.43;;
67278;SDS011;54193;53.746;10.058;2023-07-29T08:25:36;26.83;;;14.18;;
67278;SDS011;54193;53.746;10.058;2023-07-29T08:28:22;27.20;;;14.05;;
67278;SDS011;54193;53.746;10.058;2023-07-29T08:31:08;25.05;;;14.32;;
67278;SDS011;54193;53.746;10.058;2023-07-29T08:33:54;26.45;;;14.32;;
67278;SDS011;54193;53.746;10.058;2023-07-29T08:36:39;24.10;;;12.60;;
67278;SDS011;54193;53.746;10.058;2023-07-29T08:39:25;22.70;;;11.43;;
67278;SDS011;54193;53.746;10.058;2023-07-29T08:42:13;27.27;;;13.37;;
67278;SDS011;54193;53.746;10.058;2023-07-29T08:45:07;23.15;;;12.85;;
67278;SDS011;54193;53.746;10.058;2023-07-29T08:47:54;25.00;;;13.25;;
67278;SDS011;54193;53.746;10.058;2023-07-29T08:50:44;26.40;;;14.33;;
67278;SDS011;54193;53.746;10.058;2023-07-29T08:53:30;26.00;;;13.75;;
67278;SDS011;54193;53.746;10.058;2023-07-29T08:56:16;30.45;;;15.35;;
67278;SDS011;54193;53.746;10.058;2023-07-29T08:59:02;25.10;;;13.48;;
67278;SDS011;54193;53.746;10.058;2023-07-29T09:01:50;28.88;;;15.05;;
67278;SDS011;54193;53.746;10.058;2023-07-29T09:04:38;27.15;;;14.45;;
67278;SDS011;54193;53.746;10.058;2023-07-29T09:07:23;29.67;;;15.30;;
67278;SDS011;54193;53.746;10.058;2023-07-29T09:10:10;28.07;;;14.70;;
67278;SDS011;54193;53.746;10.058;2023-07-29T09:12:58;30.13;;;15.77;;
67278;SDS011;54193;53.746;10.058;2023-07-29T09:15:45;28.40;;;14.82;;
67278;SDS011;54193;53.746;10.058;2023-07-29T09:18:30;29.63;;;14.83;;
67278;SDS011;54193;53.746;10.058;2023-07-29T09:21:25;28.48;;;14.00;;
67278;SDS011;54193;53.746;10.058;2023-07-29T09:24:15;29.20;;;15.80;;
67278;SDS011;54193;53.746;10.058;2023-07-29T09:27:02;27.20;;;14.50;;
67278;SDS011;54193;53.746;10.058;2023-07-29T09:29:48;27.45;;;14.40;;
67278;SDS011;54193;53.746;10.058;2023-07-29T09:32:33;28.55;;;14.07;;
67278;SDS011;54193;53.746;10.058;2023-07-29T09:35:19;26.42;;;14.23;;
67278;SDS011;54193;53.746;10.058;2023-07-29T09:38:05;27.23;;;14.10;;
67278;SDS011;54193;53.746;10.058;2023-07-29T09:40:54;27.55;;;14.23;;
67278;SDS011;54193;53.746;10.058;2023-07-29T09:43:40;23.88;;;13.32;;
67278;SDS011;54193;53.746;10.058;2023-07-29T09:46:31;27.77;;;13.77;;
67278;SDS011;54193;53.746;10.058;2023-07-29T09:49:18;22.10;;;12.13;;
67278;SDS011;54193;53.746;10.058;2023-07-29T09:52:04;22.55;;;11.35;;
67278;SDS011;54193;53.746;10.058;2023-07-29T09:54:50;22.50;;;11.93;;
67278;SDS011;54193;53.746;10.058;2023-07-29T09:57:36;20.13;;;11.70;;
67278;SDS011;54193;53.746;10.058;2023-07-29T10:00:24;19.48;;;10.93;;
67278;SDS011;54193;53.746;10.058;2023-07-29T10:03:10;17.52;;;10.35;;
67278;SDS011;54193;53.746;10.058;2023-07-29T10:05:56;15.90;;;9.70;;
67278;SDS011;54193;53.746;10.058;2023-07-29T10:08:44;14.05;;;9.13;;
67278;SDS011;54193;53.746;10.058;2023-07-29T10:11:30;12.07;;;7.88;;
67278;SDS011;54193;53.746;10.058;2023-07-29T10:14:16;12.20;;;7.37;;
67278;SDS011;54193;53.746;10.058;2023-07-29T10:17:03;10.18;;;6.40;;
67278;SDS011;54193;53.746;10.058;2023-07-29T10:19:50;10.20;;;6.80;;
67278;SDS011;54193;53.746;10.058;2023-07-29T10:22:37;10.45;;;6.68;;
67278;SDS011;54193;53.746;10.058;2023-07-29T10:25:24;9.48;;;6.80;;
67278;SDS011;54193;53.746;10.058;2023-07-29T10:28:11;10.15;;;6.25;;
67278;SDS011;54193;53.746;10.058;2023-07-29T10:30:57;9.15;;;6.40;;
67278;SDS011;54193;53.746;10.058;2023-07-29T10:33:44;10.63;;;6.10;;
67278;SDS011;54193;53.746;10.058;2023-07-29T10:36:30;8.35;;;4.95;;
67278;SDS011;54193;53.746;10.058;2023-07-29T10:39:16;9.80;;;5.43;;
67278;SDS011;54193;53.746;10.058;2023-07-29T10:42:02;9.77;;;5.60;;
67278;SDS011;54193;53.746;10.058;2023-07-29T10:44:52;10.85;;;5.90;;
67278;SDS011;54193;53.746;10.058;2023-07-29T10:47:38;9.20;;;5.80;;
67278;SDS011;54193;53.746;10.058;2023-07-29T10:50:23;8.55;;;5.70;;
67278;SDS011;54193;53.746;10.058;2023-07-29T10:53:09;8.82;;;5.28;;
67278;SDS011;54193;53.746;10.058;2023-07-29T10:55:55;8.15;;;5.00;;
67278;SDS011;54193;53.746;10.058;2023-07-29T10:58:41;8.52;;;5.40;;
67278;SDS011;54193;53.746;10.058;2023-07-29T11:01:29;10.13;;;5.83;;
67278;SDS011;54193;53.746;10.058;2023-07-29T11:09:56;8.97;;;5.47;;
67278;SDS011;54193;53.746;10.058;2023-07-29T11:12:50;6.25;;;3.88;;
67278;SDS011;54193;53.746;10.058;2023-07-29T11:15:37;7.93;;;3.90;;
67278;SDS011;54193;53.746;10.058;2023-07-29T11:18:26;7.13;;;4.10;;
67278;SDS011;54193;53.746;10.058;2023-07-29T11:21:16;5.28;;;3.70;;
67278;SDS011;54193;53.746;10.058;2023-07-29T11:24:02;7.22;;;3.70;;
67278;SDS011;54193;53.746;10.058;2023-07-29T11:26:48;5.50;;;3.40;;
67278;SDS011;54193;53.746;10.058;2023-07-29T11:29:33;5.10;;;2.70;;
67278;SDS011;54193;53.746;10.058;2023-07-29T11:32:19;5.50;;;2.95;;
67278;SDS011;54193;53.746;10.058;2023-07-29T11:35:05;5.10;;;3.40;;
67278;SDS011;54193;53.746;10.058;2023-07-29T11:37:56;5.00;;;3.10;;
67278;SDS011;54193;53.746;10.058;2023-07-29T11:41:06;4.80;;;3.00;;
67278;SDS011;54193;53.746;10.058;2023-07-29T11:43:52;7.40;;;4.00;;
67278;SDS011;54193;53.746;10.058;2023-07-29T11:46:38;8.23;;;4.25;;
67278;SDS011;54193;53.746;10.058;2023-07-29T11:49:24;7.53;;;4.60;;
67278;SDS011;54193;53.746;10.058;2023-07-29T11:52:10;6.47;;;3.47;;
67278;SDS011;54193;53.746;10.058;2023-07-29T11:54:56;6.35;;;3.72;;
67278;SDS011;54193;53.746;10.058;2023-07-29T11:57:42;6.53;;;3.97;;
67278;SDS011;54193;53.746;10.058;2023-07-29T12:00:29;6.57;;;4.10;;
67278;SDS011;54193;53.746;10.058;2023-07-29T12:03:14;6.38;;;3.90;;
67278;SDS011;54193;53.746;10.058;2023-07-29T12:06:02;6.33;;;3.70;;
67278;SDS011;54193;53.746;10.058;2023-07-29T12:08:48;6.88;;;3.80;;
67278;SDS011;54193;53.746;10.058;2023-07-29T12:11:34;6.95;;;3.90;;
67278;SDS011;54193;53.746;10.058;2023-07-29T12:14:20;5.47;;;3.40;;
67278;SDS011;54193;53.746;10.058;2023-07-29T12:17:06;6.60;;;3.72;;
67278;SDS011;54193;53.746;10.058;2023-07-29T12:19:53;7.85;;;3.80;;
67278;SDS011;54193;53.746;10.058;2023-07-29T12:22:39;6.28;;;3.85;;
67278;SDS011;54193;53.746;10.058;2023-07-29T12:25:25;5.57;;;3.17;;
67278;SDS011;54193;53.746;10.058;2023-07-29T12:28:11;5.75;;;3.03;;
67278;SDS011;54193;53.746;10.058;2023-07-29T12:30:57;5.97;;;3.58;;
67278;SDS011;54193;53.746;10.058;2023-07-29T12:33:43;6.17;;;3.60;;
67278;SDS011;54193;53.746;10.058;2023-07-29T12:37:11;5.50;;;3.63;;
67278;SDS011;54193;53.746;10.058;2023-07-29T12:39:41;6.30;;;3.58;;
67278;SDS011;54193;53.746;10.058;2023-07-29T12:42:27;6.00;;;3.28;;
67278;SDS011;54193;53.746;10.058;2023-07-29T12:45:15;5.47;;;3.40;;
67278;SDS011;54193;53.746;10.058;2023-07-29T12:48:01;5.20;;;2.88;;
67278;SDS011;54193;53.746;10.058;2023-07-29T12:50:46;5.00;;;3.10;;
67278;SDS011;54193;53.746;10.058;2023-07-29T12:53:32;4.60;;;2.73;;
67278;SDS011;54193;53.746;10.058;2023-07-29T12:56:18;4.72;;;2.80;;
67278;SDS011;54193;53.746;10.058;2023-07-29T12:59:04;4.72;;;2.65;;
67278;SDS011;54193;53.746;10.058;2023-07-29T13:01:50;4.00;;;2.43;;
67278;SDS011;54193;53.746;10.058;2023-07-29T13:04:36;4.35;;;2.40;;
67278;SDS011;54193;53.746;10.058;2023-07-29T13:07:21;5.38;;;2.60;;
67278;SDS011;54193;53.746;10.058;2023-07-29T13:10:10;4.30;;;2.50;;
67278;SDS011;54193;53.746;10.058;2023-07-29T13:12:57;5.82;;;2.58;;
67278;SDS011;54193;53.746;10.058;2023-07-29T13:15:42;4.30;;;2.40;;
67278;SDS011;54193;53.746;10.058;2023-07-29T13:18:28;4.38;;;2.50;;
67278;SDS011;54193;53.746;10.058;2023-07-29T13:21:14;4.40;;;2.60;;
67278;SDS011;54193;53.746;10.058;2023-07-29T13:23:59;4.10;;;2.45;;
67278;SDS011;54193;53.746;10.058;2023-07-29T13:26:45;4.47;;;2.30;;
67278;SDS011;54193;53.746;10.058;2023-07-29T13:29:34;4.83;;;2.47;;
67278;SDS011;54193;53.746;10.058;2023-07-29T13:32:20;4.07;;;2.22;;
67278;SDS011;54193;53.746;10.058;2023-07-29T13:35:05;5.05;;;2.67;;
67278;SDS011;54193;53.746;10.058;2023-07-29T13:37:52;5.00;;;2.53;;
67278;SDS011;54193;53.746;10.058;2023-07-29T13:40:37;4.30;;;2.35;;
67278;SDS011;54193;53.746;10.058;2023-07-29T13:43:23;4.90;;;2.50;;
67278;SDS011;54193;53.746;10.058;2023-07-29T13:46:08;5.20;;;2.40;;
67278;SDS011;54193;53.746;10.058;2023-07-29T13:48:54;4.73;;;2.90;;
67278;SDS011;54193;53.746;10.058;2023-07-29T13:51:40;5.63;;;2.72;;
67278;SDS011;54193;53.746;10.058;2023-07-29T13:54:28;4.85;;;2.70;;
67278;SDS011;54193;53.746;10.058;2023-07-29T13:57:14;4.20;;;2.53;;
67278;SDS011;54193;53.746;10.058;2023-07-29T13:59:59;5.03;;;2.78;;
67278;SDS011;54193;53.746;10.058;2023-07-29T14:02:45;4.53;;;2.90;;
67278;SDS011;54193;53.746;10.058;2023-07-29T14:05:31;5.25;;;2.92;;
67278;SDS011;54193;53.746;10.058;2023-07-29T14:08:16;5.00;;;3.00;;
67278;SDS011;54193;53.746;10.058;2023-07-29T14:11:02;4.18;;;2.75;;
67278;SDS011;54193;53.746;10.058;2023-07-29T14:13:47;5.03;;;3.20;;
67278;SDS011;54193;53.746;10.058;2023-07-29T14:16:33;5.17;;;3.10;;
67278;SDS011;54193;53.746;10.058;2023-07-29T14:19:19;5.78;;;3.20;;
67278;SDS011;54193;53.746;10.058;2023-07-29T14:22:04;5.78;;;3.03;;
67278;SDS011;54193;53.746;10.058;2023-07-29T14:24:50;4.40;;;3.00;;
67278;SDS011;54193;53.746;10.058;2023-07-29T14:27:36;4.80;;;2.90;;
67278;SDS011;54193;53.746;10.058;2023-07-29T14:30:22;4.07;;;2.80;;
67278;SDS011;54193;53.746;10.058;2023-07-29T14:33:07;5.95;;;2.80;;
67278;SDS011;54193;53.746;10.058;2023-07-29T14:35:53;5.03;;;2.90;;
67278;SDS011;54193;53.746;10.058;2023-07-29T14:38:39;8.18;;;2.95;;
67278;SDS011;54193;53.746;10.058;2023-07-29T14:41:24;4.10;;;2.70;;
67278;SDS011;54193;53.746;10.058;2023-07-29T14:44:10;4.10;;;2.70;;
67278;SDS011;54193;53.746;10.058;2023-07-29T14:46:56;6.38;;;2.60;;
67278;SDS011;54193;53.746;10.058;2023-07-29T14:49:41;4.50;;;2.70;;
67278;SDS011;54193;53.746;10.058;2023-07-29T14:52:27;4.17;;;2.80;;
67278;SDS011;54193;53.746;10.058;2023-07-29T14:55:12;5.75;;;2.90;;
67278;SDS011;54193;53.746;10.058;2023-07-29T14:57:58;5.80;;;2.70;;
67278;SDS011;54193;53.746;10.058;2023-07-29T15:00:44;5.22;;;2.80;;
67278;SDS011;54193;53.746;10.058;2023-07-29T15:03:29;3.80;;;2.65;;
67278;SDS011;54193;53.746;10.058;2023-07-29T15:06:15;5.18;;;3.47;;
67278;SDS011;54193;53.746;10.058;2023-07-29T15:09:01;5.25;;;2.90;;
67278;SDS011;54193;53.746;10.058;2023-07-29T15:11:46;5.17;;;2.60;;
67278;SDS011;54193;53.746;10.058;2023-07-29T15:14:32;3.95;;;2.38;;
67278;SDS011;54193;53.746;10.058;2023-07-29T15:17:18;5.35;;;2.50;;
67278;SDS011;54193;53.746;10.058;2023-07-29T15:20:03;4.80;;;2.57;;
67278;SDS011;54193;53.746;10.058;2023-07-29T15:22:49;4.18;;;2.60;;
67278;SDS011;54193;53.746;10.058;2023-07-29T15:25:35;4.53;;;2.42;;
67278;SDS011;54193;53.746;10.058;2023-07-29T15:28:21;4.43;;;2.47;;
67278;SDS011;54193;53.746;10.058;2023-07-29T15:31:07;4.45;;;2.80;;
67278;SDS011;54193;53.746;10.058;2023-07-29T15:33:53;4.63;;;2.90;;
67278;SDS011;54193;53.746;10.058;2023-07-29T15:36:38;5.10;;;3.90;;
67278;SDS011;54193;53.746;10.058;2023-07-29T15:39:24;5.60;;;3.00;;
67278;SDS011;54193;53.746;10.058;2023-07-29T15:42:09;7.20;;;3.40;;
67278;SDS011;54193;53.746;10.058;2023-07-29T15:44:55;4.30;;;2.72;;
67278;SDS011;54193;53.746;10.058;2023-07-29T15:47:41;4.17;;;2.70;;
67278;SDS011;54193;53.746;10.058;2023-07-29T15:50:26;4.65;;;2.80;;
67278;SDS011;54193;53.746;10.058;2023-07-29T15:53:12;4.53;;;2.92;;
67278;SDS011;54193;53.746;10.058;2023-07-29T15:55:57;6.85;;;3.78;;
67278;SDS011;54193;53.746;10.058;2023-07-29T15:58:43;4.22;;;3.00;;
67278;SDS011;54193;53.746;10.058;2023-07-29T16:01:29;4.75;;;3.00;;
67278;SDS011;54193;53.746;10.058;2023-07-29T16:04:15;5.22;;;2.95;;
67278;SDS011;54193;53.746;10.058;2023-07-29T16:07:00;6.20;;;2.90;;
67278;SDS011;54193;53.746;10.058;2023-07-29T16:09:46;4.85;;;3.22;;
67278;SDS011;54193;53.746;10.058;2023-07-29T16:12:32;5.03;;;3.05;;
67278;SDS011;54193;53.746;10.058;2023-07-29T16:15:20;5.67;;;3.43;;
67278;SDS011;54193;53.746;10.058;2023-07-29T16:18:06;8.32;;;3.40;;
67278;SDS011;54193;53.746;10.058;2023-07-29T16:20:52;4.85;;;2.80;;
67278;SDS011;54193;53.746;10.058;2023-07-29T16:23:38;5.78;;;3.45;;